sensor_id;sensor_type;location;lat;lon;timestamp;P1;durP1;ratioP1;P2;durP2;ratioP2
20593;SDS011;10455;48.732;10.266;2022-08-06T00:04:54;18.63;;;15.43;;
20593;SDS011;10455;48.732;10.266;2022-08-06T00:09:57;19.80;;;14.98;;
20593;SDS011;10455;48.732;10.266;2022-08-06T00:15:01;16.70;;;11.70;;
20593;SDS011;10455;48.732;10.266;2022-08-06T00:20:05;13.07;;;10.82;;
20593;SDS011;10455;48.732;10.266;2022-08-06T00:25:08;17.70;;;13.00;;
20593;SDS011;10455;48.732;10.266;2022-08-06T00:30:12;12.20;;;9.18;;
20593;SDS011;10455;48.732;10.266;2022-08-06T00:35:15;12.63;;;9.50;;
20593;SDS011;10455;48.732;10.266;2022-08-06T00:40:17;9.40;;;8.50;;
20593;SDS011;10455;48.732;10.266;2022-08-06T00:45:22;9.87;;;8.73;;
20593;SDS011;10455;48.732;10.266;2022-08-06T00:50:25;9.75;;;8.90;;
20593;SDS011;10455;48.732;10.266;2022-08-06T00:55:27;12.18;;;9.73;;
20593;SDS011;10455;48.732;10.266;2022-08-06T01:00:31;10.48;;;8.27;;
20593;SDS011;10455;48.732;10.266;2022-08-06T01:05:34;8.98;;;8.18;;
20593;SDS011;10455;48.732;10.266;2022-08-06T01:10:36;8.77;;;7.85;;
20593;SDS011;10455;48.732;10.266;2022-08-06T01:15:41;9.38;;;8.30;;
20593;SDS011;10455;48.732;10.266;2022-08-06T01:20:50;10.00;;;8.80;;
20593;SDS011;10455;48.732;10.266;2022-08-06T01:31:36;9.88;;;8.93;;
20593;SDS011;10455;48.732;10.266;2022-08-06T01:36:46;8.82;;;7.93;;
20593;SDS011;10455;48.732;10.266;2022-08-06T01:41:52;10.60;;;9.37;;
20593;SDS011;10455;48.732;10.266;2022-08-06T01:47:02;10.48;;;9.38;;
20593;SDS011;10455;48.732;10.266;2022-08-06T01:52:10;9.77;;;8.88;;
20593;SDS011;10455;48.732;10.266;2022-08-06T01:57:13;6.95;;;6.35;;
20593;SDS011;10455;48.732;10.266;2022-08-06T02:02:21;9.45;;;8.45;;
20593;SDS011;10455;48.732;10.266;2022-08-06T02:07:26;7.30;;;6.70;;
20593;SDS011;10455;48.732;10.266;2022-08-06T02:12:34;7.45;;;6.82;;
20593;SDS011;10455;48.732;10.266;2022-08-06T02:17:43;10.75;;;6.85;;
20593;SDS011;10455;48.732;10.266;2022-08-06T02:22:48;8.43;;;6.93;;
20593;SDS011;10455;48.732;10.266;2022-08-06T02:27:52;7.00;;;6.40;;
20593;SDS011;10455;48.732;10.266;2022-08-06T02:32:57;6.78;;;5.93;;
20593;SDS011;10455;48.732;10.266;2022-08-06T02:38:00;7.30;;;6.53;;
20593;SDS011;10455;48.732;10.266;2022-08-06T02:43:05;7.00;;;6.40;;
20593;SDS011;10455;48.732;10.266;2022-08-06T02:48:15;7.25;;;5.60;;
20593;SDS011;10455;48.732;10.266;2022-08-06T02:53:23;6.95;;;6.38;;
20593;SDS011;10455;48.732;10.266;2022-08-06T02:58:33;7.30;;;6.15;;
20593;SDS011;10455;48.732;10.266;2022-08-06T03:03:42;6.07;;;5.47;;
20593;SDS011;10455;48.732;10.266;2022-08-06T03:08:51;6.53;;;5.97;;
20593;SDS011;10455;48.732;10.266;2022-08-06T03:13:55;7.22;;;6.53;;
20593;SDS011;10455;48.732;10.266;2022-08-06T03:19:02;6.72;;;6.13;;
20593;SDS011;10455;48.732;10.266;2022-08-06T03:24:05;7.50;;;6.65;;
20593;SDS011;10455;48.732;10.266;2022-08-06T03:29:09;6.90;;;6.07;;
20593;SDS011;10455;48.732;10.266;2022-08-06T03:34:14;7.43;;;6.63;;
20593;SDS011;10455;48.732;10.266;2022-08-06T03:39:17;6.82;;;6.20;;
20593;SDS011;10455;48.732;10.266;2022-08-06T03:44:20;7.00;;;5.68;;
20593;SDS011;10455;48.732;10.266;2022-08-06T03:49:25;7.37;;;5.30;;
20593;SDS011;10455;48.732;10.266;2022-08-06T03:54:31;5.03;;;4.53;;
20593;SDS011;10455;48.732;10.266;2022-08-06T03:59:41;8.15;;;5.10;;
20593;SDS011;10455;48.732;10.266;2022-08-06T04:04:46;5.53;;;4.90;;
20593;SDS011;10455;48.732;10.266;2022-08-06T04:09:49;4.70;;;4.20;;
20593;SDS011;10455;48.732;10.266;2022-08-06T04:14:51;5.63;;;4.77;;
20593;SDS011;10455;48.732;10.266;2022-08-06T04:19:56;5.30;;;4.80;;
20593;SDS011;10455;48.732;10.266;2022-08-06T04:25:00;5.88;;;5.38;;
20593;SDS011;10455;48.732;10.266;2022-08-06T04:30:05;5.27;;;4.77;;
20593;SDS011;10455;48.732;10.266;2022-08-06T04:35:10;6.53;;;5.03;;
20593;SDS011;10455;48.732;10.266;2022-08-06T04:40:12;6.73;;;5.30;;
20593;SDS011;10455;48.732;10.266;2022-08-06T04:45:15;8.13;;;5.60;;
20593;SDS011;10455;48.732;10.266;2022-08-06T04:50:20;5.82;;;5.25;;
20593;SDS011;10455;48.732;10.266;2022-08-06T04:55:23;7.70;;;5.50;;
20593;SDS011;10455;48.732;10.266;2022-08-06T05:00:25;7.13;;;6.40;;
20593;SDS011;10455;48.732;10.266;2022-08-06T05:05:30;8.17;;;6.50;;
20593;SDS011;10455;48.732;10.266;2022-08-06T05:10:39;7.25;;;6.50;;
20593;SDS011;10455;48.732;10.266;2022-08-06T05:15:49;7.27;;;6.67;;
20593;SDS011;10455;48.732;10.266;2022-08-06T05:20:56;6.80;;;6.10;;
20593;SDS011;10455;48.732;10.266;2022-08-06T05:25:59;7.10;;;6.40;;
20593;SDS011;10455;48.732;10.266;2022-08-06T05:31:02;7.30;;;6.28;;
20593;SDS011;10455;48.732;10.266;2022-08-06T05:36:06;6.60;;;6.00;;
20593;SDS011;10455;48.732;10.266;2022-08-06T05:41:10;8.63;;;5.95;;
20593;SDS011;10455;48.732;10.266;2022-08-06T05:46:14;6.53;;;5.93;;
20593;SDS011;10455;48.732;10.266;2022-08-06T05:51:23;7.80;;;5.38;;
20593;SDS011;10455;48.732;10.266;2022-08-06T05:56:31;8.05;;;6.65;;
20593;SDS011;10455;48.732;10.266;2022-08-06T06:01:38;10.23;;;6.47;;
20593;SDS011;10455;48.732;10.266;2022-08-06T06:06:43;6.50;;;5.85;;
20593;SDS011;10455;48.732;10.266;2022-08-06T06:11:45;7.78;;;5.60;;
20593;SDS011;10455;48.732;10.266;2022-08-06T06:16:51;6.50;;;5.25;;
20593;SDS011;10455;48.732;10.266;2022-08-06T06:22:02;5.75;;;5.20;;
20593;SDS011;10455;48.732;10.266;2022-08-06T06:27:17;6.53;;;4.93;;
20593;SDS011;10455;48.732;10.266;2022-08-06T06:32:30;5.30;;;4.80;;
20593;SDS011;10455;48.732;10.266;2022-08-06T06:37:43;4.25;;;3.88;;
20593;SDS011;10455;48.732;10.266;2022-08-06T06:42:50;3.95;;;3.50;;
20593;SDS011;10455;48.732;10.266;2022-08-06T06:48:04;4.45;;;4.05;;
20593;SDS011;10455;48.732;10.266;2022-08-06T06:53:11;6.30;;;4.90;;
20593;SDS011;10455;48.732;10.266;2022-08-06T06:58:16;5.90;;;5.40;;
20593;SDS011;10455;48.732;10.266;2022-08-06T07:03:23;5.88;;;5.25;;
20593;SDS011;10455;48.732;10.266;2022-08-06T07:08:29;6.30;;;5.65;;
20593;SDS011;10455;48.732;10.266;2022-08-06T07:13:35;8.65;;;5.97;;
20593;SDS011;10455;48.732;10.266;2022-08-06T07:18:37;6.45;;;5.85;;
20593;SDS011;10455;48.732;10.266;2022-08-06T07:23:42;6.60;;;6.00;;
20593;SDS011;10455;48.732;10.266;2022-08-06T07:28:46;6.97;;;6.28;;
20593;SDS011;10455;48.732;10.266;2022-08-06T07:33:50;6.95;;;6.35;;
20593;SDS011;10455;48.732;10.266;2022-08-06T07:39:03;7.68;;;6.97;;
20593;SDS011;10455;48.732;10.266;2022-08-06T07:44:08;6.80;;;6.20;;
20593;SDS011;10455;48.732;10.266;2022-08-06T07:49:14;6.05;;;5.55;;
20593;SDS011;10455;48.732;10.266;2022-08-06T07:54:19;6.60;;;6.00;;
20593;SDS011;10455;48.732;10.266;2022-08-06T07:59:25;6.20;;;5.05;;
20593;SDS011;10455;48.732;10.266;2022-08-06T08:04:28;6.50;;;5.65;;
20593;SDS011;10455;48.732;10.266;2022-08-06T08:09:50;6.57;;;6.03;;
20593;SDS011;10455;48.732;10.266;2022-08-06T08:14:53;5.60;;;5.10;;
20593;SDS011;10455;48.732;10.266;2022-08-06T08:19:57;5.60;;;5.10;;
20593;SDS011;10455;48.732;10.266;2022-08-06T08:25:06;6.57;;;5.07;;
20593;SDS011;10455;48.732;10.266;2022-08-06T08:30:09;7.55;;;4.85;;
20593;SDS011;10455;48.732;10.266;2022-08-06T08:35:12;4.53;;;4.13;;
20593;SDS011;10455;48.732;10.266;2022-08-06T08:40:17;7.25;;;3.97;;
20593;SDS011;10455;48.732;10.266;2022-08-06T08:45:19;4.18;;;3.83;;
20593;SDS011;10455;48.732;10.266;2022-08-06T08:50:23;4.40;;;3.28;;
20593;SDS011;10455;48.732;10.266;2022-08-06T08:55:30;5.13;;;3.92;;
20593;SDS011;10455;48.732;10.266;2022-08-06T09:00:32;4.20;;;3.80;;
20593;SDS011;10455;48.732;10.266;2022-08-06T09:05:35;4.18;;;3.53;;
20593;SDS011;10455;48.732;10.266;2022-08-06T09:10:39;3.17;;;2.88;;
20593;SDS011;10455;48.732;10.266;2022-08-06T09:15:42;6.70;;;3.60;;
20593;SDS011;10455;48.732;10.266;2022-08-06T09:20:44;3.92;;;3.47;;
20593;SDS011;10455;48.732;10.266;2022-08-06T09:25:48;2.97;;;2.67;;
20593;SDS011;10455;48.732;10.266;2022-08-06T09:30:56;3.75;;;2.45;;
20593;SDS011;10455;48.732;10.266;2022-08-06T09:36:00;2.97;;;2.65;;
20593;SDS011;10455;48.732;10.266;2022-08-06T09:41:07;3.42;;;3.03;;
20593;SDS011;10455;48.732;10.266;2022-08-06T09:46:10;4.68;;;2.67;;
20593;SDS011;10455;48.732;10.266;2022-08-06T09:51:20;3.35;;;3.05;;
20593;SDS011;10455;48.732;10.266;2022-08-06T09:56:24;3.40;;;3.10;;
20593;SDS011;10455;48.732;10.266;2022-08-06T10:01:28;3.92;;;3.30;;
20593;SDS011;10455;48.732;10.266;2022-08-06T10:06:30;3.65;;;2.83;;
20593;SDS011;10455;48.732;10.266;2022-08-06T10:11:34;4.80;;;3.00;;
20593;SDS011;10455;48.732;10.266;2022-08-06T10:16:39;3.17;;;2.50;;
20593;SDS011;10455;48.732;10.266;2022-08-06T10:21:41;3.42;;;2.92;;
20593;SDS011;10455;48.732;10.266;2022-08-06T10:26:45;3.03;;;2.70;;
20593;SDS011;10455;48.732;10.266;2022-08-06T10:31:49;2.72;;;2.53;;
20593;SDS011;10455;48.732;10.266;2022-08-06T10:36:58;3.60;;;2.88;;
20593;SDS011;10455;48.732;10.266;2022-08-06T10:42:05;2.20;;;2.00;;
20593;SDS011;10455;48.732;10.266;2022-08-06T10:47:07;2.47;;;2.28;;
20593;SDS011;10455;48.732;10.266;2022-08-06T10:52:09;3.05;;;2.13;;
20593;SDS011;10455;48.732;10.266;2022-08-06T10:57:13;2.30;;;2.10;;
20593;SDS011;10455;48.732;10.266;2022-08-06T11:02:19;4.53;;;2.60;;
20593;SDS011;10455;48.732;10.266;2022-08-06T11:13:13;3.10;;;2.10;;
20593;SDS011;10455;48.732;10.266;2022-08-06T11:18:22;3.45;;;2.20;;
20593;SDS011;10455;48.732;10.266;2022-08-06T11:23:25;2.83;;;1.98;;
20593;SDS011;10455;48.732;10.266;2022-08-06T11:34:03;2.95;;;2.03;;
20593;SDS011;10455;48.732;10.266;2022-08-06T11:39:06;3.13;;;2.17;;
20593;SDS011;10455;48.732;10.266;2022-08-06T11:44:11;2.40;;;2.20;;
20593;SDS011;10455;48.732;10.266;2022-08-06T11:49:20;4.15;;;2.00;;
20593;SDS011;10455;48.732;10.266;2022-08-06T11:54:25;2.42;;;1.88;;
20593;SDS011;10455;48.732;10.266;2022-08-06T11:59:30;3.20;;;1.90;;
20593;SDS011;10455;48.732;10.266;2022-08-06T12:04:38;2.45;;;1.85;;
20593;SDS011;10455;48.732;10.266;2022-08-06T12:09:42;2.80;;;1.70;;
20593;SDS011;10455;48.732;10.266;2022-08-06T12:14:46;2.75;;;1.40;;
20593;SDS011;10455;48.732;10.266;2022-08-06T12:19:49;1.88;;;1.67;;
20593;SDS011;10455;48.732;10.266;2022-08-06T12:24:52;2.30;;;1.90;;
20593;SDS011;10455;48.732;10.266;2022-08-06T12:29:59;1.65;;;1.42;;
20593;SDS011;10455;48.732;10.266;2022-08-06T12:35:03;3.33;;;1.63;;
20593;SDS011;10455;48.732;10.266;2022-08-06T12:40:11;2.38;;;1.77;;
20593;SDS011;10455;48.732;10.266;2022-08-06T12:45:31;1.98;;;1.42;;
20593;SDS011;10455;48.732;10.266;2022-08-06T12:50:35;4.65;;;2.03;;
20593;SDS011;10455;48.732;10.266;2022-08-06T12:55:41;2.53;;;1.75;;
20593;SDS011;10455;48.732;10.266;2022-08-06T13:00:48;1.67;;;1.50;;
20593;SDS011;10455;48.732;10.266;2022-08-06T13:05:52;2.28;;;1.90;;
20593;SDS011;10455;48.732;10.266;2022-08-06T13:10:56;3.45;;;1.80;;
20593;SDS011;10455;48.732;10.266;2022-08-06T13:16:00;3.95;;;2.13;;
20593;SDS011;10455;48.732;10.266;2022-08-06T13:21:04;2.33;;;1.98;;
20593;SDS011;10455;48.732;10.266;2022-08-06T13:26:18;1.92;;;1.63;;
20593;SDS011;10455;48.732;10.266;2022-08-06T13:31:23;2.08;;;1.60;;
20593;SDS011;10455;48.732;10.266;2022-08-06T13:36:25;6.20;;;2.67;;
20593;SDS011;10455;48.732;10.266;2022-08-06T13:41:28;4.03;;;1.92;;
20593;SDS011;10455;48.732;10.266;2022-08-06T13:46:41;4.15;;;1.73;;
20593;SDS011;10455;48.732;10.266;2022-08-06T13:51:44;1.80;;;1.40;;
20593;SDS011;10455;48.732;10.266;2022-08-06T13:56:47;2.70;;;1.50;;
20593;SDS011;10455;48.732;10.266;2022-08-06T14:01:51;1.95;;;1.70;;
20593;SDS011;10455;48.732;10.266;2022-08-06T14:06:55;2.72;;;1.75;;
20593;SDS011;10455;48.732;10.266;2022-08-06T14:11:58;4.43;;;1.70;;
20593;SDS011;10455;48.732;10.266;2022-08-06T14:17:04;2.35;;;1.80;;
20593;SDS011;10455;48.732;10.266;2022-08-06T14:22:06;2.70;;;1.50;;
20593;SDS011;10455;48.732;10.266;2022-08-06T14:27:09;1.95;;;1.55;;
20593;SDS011;10455;48.732;10.266;2022-08-06T14:32:13;2.08;;;1.60;;
20593;SDS011;10455;48.732;10.266;2022-08-06T14:37:15;1.92;;;1.55;;
20593;SDS011;10455;48.732;10.266;2022-08-06T14:42:17;1.40;;;1.30;;
20593;SDS011;10455;48.732;10.266;2022-08-06T14:47:38;3.35;;;1.80;;
20593;SDS011;10455;48.732;10.266;2022-08-06T14:52:40;2.17;;;1.50;;
20593;SDS011;10455;48.732;10.266;2022-08-06T14:57:43;2.65;;;1.52;;
20593;SDS011;10455;48.732;10.266;2022-08-06T15:02:47;2.35;;;1.70;;
20593;SDS011;10455;48.732;10.266;2022-08-06T15:07:51;1.85;;;1.65;;
20593;SDS011;10455;48.732;10.266;2022-08-06T15:12:53;3.28;;;1.40;;
20593;SDS011;10455;48.732;10.266;2022-08-06T15:17:57;4.60;;;1.50;;
20593;SDS011;10455;48.732;10.266;2022-08-06T15:22:59;3.38;;;1.52;;
20593;SDS011;10455;48.732;10.266;2022-08-06T15:28:02;2.08;;;1.70;;
20593;SDS011;10455;48.732;10.266;2022-08-06T15:33:06;2.80;;;1.73;;
20593;SDS011;10455;48.732;10.266;2022-08-06T15:38:08;2.42;;;1.58;;
20593;SDS011;10455;48.732;10.266;2022-08-06T15:43:10;2.55;;;1.50;;
20593;SDS011;10455;48.732;10.266;2022-08-06T15:48:14;1.98;;;1.58;;
20593;SDS011;10455;48.732;10.266;2022-08-06T15:53:16;4.07;;;1.55;;
20593;SDS011;10455;48.732;10.266;2022-08-06T15:58:20;2.85;;;1.50;;
20593;SDS011;10455;48.732;10.266;2022-08-06T16:03:23;2.05;;;1.40;;
20593;SDS011;10455;48.732;10.266;2022-08-06T16:08:25;1.67;;;1.38;;
20593;SDS011;10455;48.732;10.266;2022-08-06T16:13:27;1.70;;;1.40;;
20593;SDS011;10455;48.732;10.266;2022-08-06T16:18:31;1.90;;;1.30;;
20593;SDS011;10455;48.732;10.266;2022-08-06T16:23:33;1.80;;;1.40;;
20593;SDS011;10455;48.732;10.266;2022-08-06T16:28:35;2.67;;;1.35;;
20593;SDS011;10455;48.732;10.266;2022-08-06T16:33:39;3.75;;;1.40;;
20593;SDS011;10455;48.732;10.266;2022-08-06T16:38:41;2.88;;;1.40;;
20593;SDS011;10455;48.732;10.266;2022-08-06T16:43:43;3.15;;;1.67;;
20593;SDS011;10455;48.732;10.266;2022-08-06T16:48:48;1.83;;;1.50;;
20593;SDS011;10455;48.732;10.266;2022-08-06T16:53:50;4.28;;;1.60;;
20593;SDS011;10455;48.732;10.266;2022-08-06T16:58:53;2.17;;;1.60;;
20593;SDS011;10455;48.732;10.266;2022-08-06T17:03:56;9.98;;;3.80;;
20593;SDS011;10455;48.732;10.266;2022-08-06T17:08:59;2.28;;;1.45;;
20593;SDS011;10455;48.732;10.266;2022-08-06T17:14:02;2.20;;;1.47;;
20593;SDS011;10455;48.732;10.266;2022-08-06T17:19:05;1.95;;;1.45;;
20593;SDS011;10455;48.732;10.266;2022-08-06T17:24:08;3.58;;;1.60;;
20593;SDS011;10455;48.732;10.266;2022-08-06T17:29:10;49.55;;;17.65;;
20593;SDS011;10455;48.732;10.266;2022-08-06T17:34:13;1.77;;;1.50;;
20593;SDS011;10455;48.732;10.266;2022-08-06T17:39:15;13.65;;;3.88;;
20593;SDS011;10455;48.732;10.266;2022-08-06T17:44:17;1.60;;;1.38;;
20593;SDS011;10455;48.732;10.266;2022-08-06T17:49:21;1.88;;;1.25;;
20593;SDS011;10455;48.732;10.266;2022-08-06T17:54:23;5.50;;;1.55;;
20593;SDS011;10455;48.732;10.266;2022-08-06T17:59:25;2.13;;;1.30;;
20593;SDS011;10455;48.732;10.266;2022-08-06T18:04:29;2.13;;;1.30;;
20593;SDS011;10455;48.732;10.266;2022-08-06T18:09:32;2.17;;;1.38;;
20593;SDS011;10455;48.732;10.266;2022-08-06T18:14:34;1.55;;;1.40;;
20593;SDS011;10455;48.732;10.266;2022-08-06T18:19:37;3.33;;;1.38;;
20593;SDS011;10455;48.732;10.266;2022-08-06T18:24:40;1.50;;;1.40;;
20593;SDS011;10455;48.732;10.266;2022-08-06T18:29:42;3.80;;;1.35;;
20593;SDS011;10455;48.732;10.266;2022-08-06T18:34:45;1.60;;;1.35;;
20593;SDS011;10455;48.732;10.266;2022-08-06T18:39:47;3.13;;;1.67;;
20593;SDS011;10455;48.732;10.266;2022-08-06T18:44:50;3.28;;;1.52;;
20593;SDS011;10455;48.732;10.266;2022-08-06T18:49:54;1.50;;;1.40;;
20593;SDS011;10455;48.732;10.266;2022-08-06T18:54:57;2.47;;;1.40;;
20593;SDS011;10455;48.732;10.266;2022-08-06T19:00:00;3.10;;;1.58;;
20593;SDS011;10455;48.732;10.266;2022-08-06T19:05:04;2.17;;;1.63;;
20593;SDS011;10455;48.732;10.266;2022-08-06T19:10:07;1.50;;;1.40;;
20593;SDS011;10455;48.732;10.266;2022-08-06T19:15:10;44.65;;;7.82;;
20593;SDS011;10455;48.732;10.266;2022-08-06T19:20:14;10.55;;;2.75;;
20593;SDS011;10455;48.732;10.266;2022-08-06T19:25:17;4.47;;;2.07;;
20593;SDS011;10455;48.732;10.266;2022-08-06T19:30:20;5.47;;;1.83;;
20593;SDS011;10455;48.732;10.266;2022-08-06T19:35:23;4.67;;;2.33;;
20593;SDS011;10455;48.732;10.266;2022-08-06T19:40:26;3.30;;;2.20;;
20593;SDS011;10455;48.732;10.266;2022-08-06T19:45:46;4.23;;;2.00;;
20593;SDS011;10455;48.732;10.266;2022-08-06T19:50:50;2.67;;;2.10;;
20593;SDS011;10455;48.732;10.266;2022-08-06T19:55:53;2.47;;;1.70;;
20593;SDS011;10455;48.732;10.266;2022-08-06T20:00:55;2.60;;;2.00;;
20593;SDS011;10455;48.732;10.266;2022-08-06T20:06:09;1.90;;;1.70;;
20593;SDS011;10455;48.732;10.266;2022-08-06T20:11:12;2.20;;;2.00;;
20593;SDS011;10455;48.732;10.266;2022-08-06T20:16:14;2.20;;;1.80;;
20593;SDS011;10455;48.732;10.266;2022-08-06T20:21:19;2.97;;;2.07;;
20593;SDS011;10455;48.732;10.266;2022-08-06T20:26:21;2.53;;;1.83;;
20593;SDS011;10455;48.732;10.266;2022-08-06T20:31:23;4.43;;;1.90;;
20593;SDS011;10455;48.732;10.266;2022-08-06T20:36:27;2.47;;;1.93;;
20593;SDS011;10455;48.732;10.266;2022-08-06T20:41:30;3.13;;;2.20;;
20593;SDS011;10455;48.732;10.266;2022-08-06T20:46:33;2.40;;;2.20;;
20593;SDS011;10455;48.732;10.266;2022-08-06T20:51:37;2.43;;;2.20;;
20593;SDS011;10455;48.732;10.266;2022-08-06T20:56:40;2.53;;;2.10;;
20593;SDS011;10455;48.732;10.266;2022-08-06T21:01:42;2.40;;;2.20;;
20593;SDS011;10455;48.732;10.266;2022-08-06T21:06:45;2.40;;;2.20;;
20593;SDS011;10455;48.732;10.266;2022-08-06T21:11:48;2.40;;;2.00;;
20593;SDS011;10455;48.732;10.266;2022-08-06T21:16:50;2.37;;;2.17;;
20593;SDS011;10455;48.732;10.266;2022-08-06T21:21:53;2.93;;;2.27;;
20593;SDS011;10455;48.732;10.266;2022-08-06T21:26:55;2.40;;;2.20;;
20593;SDS011;10455;48.732;10.266;2022-08-06T21:31:58;2.40;;;2.00;;
20593;SDS011;10455;48.732;10.266;2022-08-06T21:37:01;2.00;;;1.90;;
20593;SDS011;10455;48.732;10.266;2022-08-06T21:42:05;2.23;;;1.90;;
20593;SDS011;10455;48.732;10.266;2022-08-06T21:47:07;3.27;;;2.13;;
20593;SDS011;10455;48.732;10.266;2022-08-06T21:52:11;2.63;;;2.43;;
20593;SDS011;10455;48.732;10.266;2022-08-06T21:57:14;2.80;;;2.30;;
20593;SDS011;10455;48.732;10.266;2022-08-06T22:02:22;3.70;;;2.20;;
20593;SDS011;10455;48.732;10.266;2022-08-06T22:07:27;3.63;;;2.10;;
20593;SDS011;10455;48.732;10.266;2022-08-06T22:12:32;2.60;;;2.40;;
20593;SDS011;10455;48.732;10.266;2022-08-06T22:17:35;3.23;;;2.30;;
20593;SDS011;10455;48.732;10.266;2022-08-06T22:22:43;2.73;;;2.33;;
20593;SDS011;10455;48.732;10.266;2022-08-06T22:27:46;2.60;;;2.40;;
20593;SDS011;10455;48.732;10.266;2022-08-06T22:32:48;2.70;;;2.27;;
20593;SDS011;10455;48.732;10.266;2022-08-06T22:37:52;2.97;;;1.93;;
20593;SDS011;10455;48.732;10.266;2022-08-06T22:42:54;3.07;;;2.40;;
20593;SDS011;10455;48.732;10.266;2022-08-06T22:47:56;2.63;;;2.43;;
20593;SDS011;10455;48.732;10.266;2022-08-06T22:53:00;5.00;;;2.70;;
20593;SDS011;10455;48.732;10.266;2022-08-06T22:58:03;3.00;;;2.23;;
20593;SDS011;10455;48.732;10.266;2022-08-06T23:03:07;2.70;;;2.27;;
20593;SDS011;10455;48.732;10.266;2022-08-06T23:08:10;3.23;;;2.50;;
20593;SDS011;10455;48.732;10.266;2022-08-06T23:13:12;2.60;;;2.30;;
20593;SDS011;10455;48.732;10.266;2022-08-06T23:18:15;2.43;;;2.30;;
20593;SDS011;10455;48.732;10.266;2022-08-06T23:23:18;2.70;;;2.50;;
20593;SDS011;10455;48.732;10.266;2022-08-06T23:28:21;2.90;;;2.50;;
20593;SDS011;10455;48.732;10.266;2022-08-06T23:33:23;3.63;;;2.47;;
20593;SDS011;10455;48.732;10.266;2022-08-06T23:38:26;2.83;;;2.53;;
20593;SDS011;10455;48.732;10.266;2022-08-06T23:43:28;2.53;;;2.33;;
20593;SDS011;10455;48.732;10.266;2022-08-06T23:48:30;3.17;;;2.70;;
20593;SDS011;10455;48.732;10.266;2022-08-06T23:53:34;2.60;;;2.40;;
20593;SDS011;10455;48.732;10.266;2022-08-06T23:58:36;2.50;;;2.30;;
